sensor_id;sensor_type;location;lat;lon;timestamp;temperature;humidity
45137;DHT22;30894;51.740;19.498;2023-03-11T00:00:19;5.40;99.90
45137;DHT22;30894;51.740;19.498;2023-03-11T00:03:08;5.30;99.90
45137;DHT22;30894;51.740;19.498;2023-03-11T00:05:36;5.20;99.90
45137;DHT22;30894;51.740;19.498;2023-03-11T00:08:06;5.10;99.90
45137;DHT22;30894;51.740;19.498;2023-03-11T00:10:38;5.00;99.90
45137;DHT22;30894;51.740;19.498;2023-03-11T00:13:10;4.90;99.90
45137;DHT22;30894;51.740;19.498;2023-03-11T00:15:38;4.90;99.90
45137;DHT22;30894;51.740;19.498;2023-03-11T00:18:05;4.90;99.90
45137;DHT22;30894;51.740;19.498;2023-03-11T00:20:37;4.90;99.90
45137;DHT22;30894;51.740;19.498;2023-03-11T00:23:06;4.90;99.90
45137;DHT22;30894;51.740;19.498;2023-03-11T00:25:33;5.00;99.90
45137;DHT22;30894;51.740;19.498;2023-03-11T00:28:02;5.10;99.90
45137;DHT22;30894;51.740;19.498;2023-03-11T00:30:29;5.20;99.90
45137;DHT22;30894;51.740;19.498;2023-03-11T00:32:57;5.20;99.90
45137;DHT22;30894;51.740;19.498;2023-03-11T00:35:31;5.30;99.90
45137;DHT22;30894;51.740;19.498;2023-03-11T00:38:01;5.30;99.90
45137;DHT22;30894;51.740;19.498;2023-03-11T00:40:31;5.40;99.90
45137;DHT22;30894;51.740;19.498;2023-03-11T00:42:58;5.50;99.90
45137;DHT22;30894;51.740;19.498;2023-03-11T00:45:26;5.50;99.90
45137;DHT22;30894;51.740;19.498;2023-03-11T00:47:52;5.50;99.90
45137;DHT22;30894;51.740;19.498;2023-03-11T00:50:22;5.60;99.90
45137;DHT22;30894;51.740;19.498;2023-03-11T00:52:51;5.70;99.90
45137;DHT22;30894;51.740;19.498;2023-03-11T00:55:20;5.80;99.90
45137;DHT22;30894;51.740;19.498;2023-03-11T00:57:51;5.80;99.90
45137;DHT22;30894;51.740;19.498;2023-03-11T01:00:20;5.90;99.90
45137;DHT22;30894;51.740;19.498;2023-03-11T01:02:47;6.00;99.90
45137;DHT22;30894;51.740;19.498;2023-03-11T01:05:13;6.10;99.90
45137;DHT22;30894;51.740;19.498;2023-03-11T01:07:39;6.10;99.90
45137;DHT22;30894;51.740;19.498;2023-03-11T01:10:07;6.10;99.90
45137;DHT22;30894;51.740;19.498;2023-03-11T01:12:34;6.20;99.90
45137;DHT22;30894;51.740;19.498;2023-03-11T01:15:01;6.30;99.90
45137;DHT22;30894;51.740;19.498;2023-03-11T01:17:28;6.30;99.90
45137;DHT22;30894;51.740;19.498;2023-03-11T01:19:54;6.30;99.90
45137;DHT22;30894;51.740;19.498;2023-03-11T01:22:20;6.40;99.90
45137;DHT22;30894;51.740;19.498;2023-03-11T01:24:46;6.40;99.90
45137;DHT22;30894;51.740;19.498;2023-03-11T01:27:13;6.40;99.90
45137;DHT22;30894;51.740;19.498;2023-03-11T01:29:39;6.50;99.90
45137;DHT22;30894;51.740;19.498;2023-03-11T01:32:05;6.50;99.90
45137;DHT22;30894;51.740;19.498;2023-03-11T01:34:32;6.60;99.90
45137;DHT22;30894;51.740;19.498;2023-03-11T01:37:02;6.50;99.90
45137;DHT22;30894;51.740;19.498;2023-03-11T01:39:28;6.60;99.90
45137;DHT22;30894;51.740;19.498;2023-03-11T01:41:54;6.60;99.90
45137;DHT22;30894;51.740;19.498;2023-03-11T01:44:20;6.60;99.90
45137;DHT22;30894;51.740;19.498;2023-03-11T01:49:20;6.70;99.90
45137;DHT22;30894;51.740;19.498;2023-03-11T01:51:50;6.70;99.90
45137;DHT22;30894;51.740;19.498;2023-03-11T01:54:40;6.60;99.90
45137;DHT22;30894;51.740;19.498;2023-03-11T01:57:09;6.70;99.90
45137;DHT22;30894;51.740;19.498;2023-03-11T01:59:41;6.70;99.90
45137;DHT22;30894;51.740;19.498;2023-03-11T02:05:05;6.80;99.90
45137;DHT22;30894;51.740;19.498;2023-03-11T02:07:31;6.80;99.90
45137;DHT22;30894;51.740;19.498;2023-03-11T02:09:57;6.80;99.90
45137;DHT22;30894;51.740;19.498;2023-03-11T02:12:24;6.80;99.90
45137;DHT22;30894;51.740;19.498;2023-03-11T02:14:52;6.80;99.90
45137;DHT22;30894;51.740;19.498;2023-03-11T02:17:19;6.70;99.90
45137;DHT22;30894;51.740;19.498;2023-03-11T02:22:27;6.60;99.90
45137;DHT22;30894;51.740;19.498;2023-03-11T02:28:00;6.60;99.90
45137;DHT22;30894;51.740;19.498;2023-03-11T02:30:28;6.60;99.90
45137;DHT22;30894;51.740;19.498;2023-03-11T02:32:55;6.60;99.90
45137;DHT22;30894;51.740;19.498;2023-03-11T02:35:21;6.60;99.90
45137;DHT22;30894;51.740;19.498;2023-03-11T02:37:51;6.70;99.90
45137;DHT22;30894;51.740;19.498;2023-03-11T02:42:51;6.80;99.90
45137;DHT22;30894;51.740;19.498;2023-03-11T02:45:21;6.80;99.90
45137;DHT22;30894;51.740;19.498;2023-03-11T02:47:51;6.90;99.90
45137;DHT22;30894;51.740;19.498;2023-03-11T02:50:17;6.90;99.90
45137;DHT22;30894;51.740;19.498;2023-03-11T02:52:44;6.90;99.90
45137;DHT22;30894;51.740;19.498;2023-03-11T02:55:10;7.00;99.90
45137;DHT22;30894;51.740;19.498;2023-03-11T02:57:37;7.00;99.90
45137;DHT22;30894;51.740;19.498;2023-03-11T03:00:04;7.10;99.90
45137;DHT22;30894;51.740;19.498;2023-03-11T03:02:38;7.10;99.90
45137;DHT22;30894;51.740;19.498;2023-03-11T03:05:05;7.10;99.90
45137;DHT22;30894;51.740;19.498;2023-03-11T03:07:32;7.10;99.90
45137;DHT22;30894;51.740;19.498;2023-03-11T03:09:58;7.10;99.90
45137;DHT22;30894;51.740;19.498;2023-03-11T03:12:24;7.10;99.90
45137;DHT22;30894;51.740;19.498;2023-03-11T03:14:50;7.10;99.90
45137;DHT22;30894;51.740;19.498;2023-03-11T03:17:16;7.20;99.90
45137;DHT22;30894;51.740;19.498;2023-03-11T03:19:42;7.10;99.90
45137;DHT22;30894;51.740;19.498;2023-03-11T03:22:08;7.00;99.90
45137;DHT22;30894;51.740;19.498;2023-03-11T03:24:34;7.10;99.90
45137;DHT22;30894;51.740;19.498;2023-03-11T03:27:01;7.00;99.90
45137;DHT22;30894;51.740;19.498;2023-03-11T03:29:27;6.90;99.90
45137;DHT22;30894;51.740;19.498;2023-03-11T03:31:53;6.90;99.90
45137;DHT22;30894;51.740;19.498;2023-03-11T03:34:19;6.90;99.90
45137;DHT22;30894;51.740;19.498;2023-03-11T03:36:45;6.90;99.90
45137;DHT22;30894;51.740;19.498;2023-03-11T03:39:11;6.90;99.90
45137;DHT22;30894;51.740;19.498;2023-03-11T03:41:38;6.80;99.90
45137;DHT22;30894;51.740;19.498;2023-03-11T03:44:03;6.80;99.90
45137;DHT22;30894;51.740;19.498;2023-03-11T03:46:30;6.70;99.90
45137;DHT22;30894;51.740;19.498;2023-03-11T03:48:56;6.70;99.90
45137;DHT22;30894;51.740;19.498;2023-03-11T03:51:22;6.60;99.90
45137;DHT22;30894;51.740;19.498;2023-03-11T03:53:48;6.60;99.90
45137;DHT22;30894;51.740;19.498;2023-03-11T03:56:16;6.60;99.90
45137;DHT22;30894;51.740;19.498;2023-03-11T03:58:43;6.50;99.90
45137;DHT22;30894;51.740;19.498;2023-03-11T04:01:11;6.50;99.90
45137;DHT22;30894;51.740;19.498;2023-03-11T04:03:38;6.50;99.90
45137;DHT22;30894;51.740;19.498;2023-03-11T04:08:49;6.40;99.90
45137;DHT22;30894;51.740;19.498;2023-03-11T04:11:17;6.40;99.90
45137;DHT22;30894;51.740;19.498;2023-03-11T04:13:44;6.40;99.90
45137;DHT22;30894;51.740;19.498;2023-03-11T04:16:19;6.30;99.90
45137;DHT22;30894;51.740;19.498;2023-03-11T04:18:47;6.30;99.90
45137;DHT22;30894;51.740;19.498;2023-03-11T04:21:21;6.20;99.90
45137;DHT22;30894;51.740;19.498;2023-03-11T04:23:47;6.30;99.90
45137;DHT22;30894;51.740;19.498;2023-03-11T04:26:14;6.20;99.90
45137;DHT22;30894;51.740;19.498;2023-03-11T04:28:40;6.20;99.90
45137;DHT22;30894;51.740;19.498;2023-03-11T04:31:06;6.20;99.90
45137;DHT22;30894;51.740;19.498;2023-03-11T04:33:32;6.20;99.90
45137;DHT22;30894;51.740;19.498;2023-03-11T04:35:59;6.10;99.90
45137;DHT22;30894;51.740;19.498;2023-03-11T04:38:29;6.10;99.90
45137;DHT22;30894;51.740;19.498;2023-03-11T04:40:59;6.10;99.90
45137;DHT22;30894;51.740;19.498;2023-03-11T04:43:26;6.10;99.90
45137;DHT22;30894;51.740;19.498;2023-03-11T04:45:52;6.10;99.90
45137;DHT22;30894;51.740;19.498;2023-03-11T04:48:18;6.00;99.90
45137;DHT22;30894;51.740;19.498;2023-03-11T04:50:45;6.00;99.90
45137;DHT22;30894;51.740;19.498;2023-03-11T04:53:11;5.90;99.90
45137;DHT22;30894;51.740;19.498;2023-03-11T04:55:38;5.90;99.90
45137;DHT22;30894;51.740;19.498;2023-03-11T04:58:06;5.80;99.90
45137;DHT22;30894;51.740;19.498;2023-03-11T05:00:32;5.80;99.90
45137;DHT22;30894;51.740;19.498;2023-03-11T05:02:59;5.70;99.90
45137;DHT22;30894;51.740;19.498;2023-03-11T05:05:26;5.60;99.90
45137;DHT22;30894;51.740;19.498;2023-03-11T05:07:52;5.50;99.90
45137;DHT22;30894;51.740;19.498;2023-03-11T05:10:19;5.50;99.90
45137;DHT22;30894;51.740;19.498;2023-03-11T05:12:49;5.50;99.90
45137;DHT22;30894;51.740;19.498;2023-03-11T05:15:16;5.40;99.90
45137;DHT22;30894;51.740;19.498;2023-03-11T05:17:43;5.40;99.90
45137;DHT22;30894;51.740;19.498;2023-03-11T05:20:13;5.30;99.90
45137;DHT22;30894;51.740;19.498;2023-03-11T05:22:39;5.30;99.90
45137;DHT22;30894;51.740;19.498;2023-03-11T05:25:06;5.30;99.90
45137;DHT22;30894;51.740;19.498;2023-03-11T05:27:32;5.20;99.90
45137;DHT22;30894;51.740;19.498;2023-03-11T05:29:59;5.20;99.90
45137;DHT22;30894;51.740;19.498;2023-03-11T05:32:25;5.10;99.90
45137;DHT22;30894;51.740;19.498;2023-03-11T05:34:52;5.10;99.90
45137;DHT22;30894;51.740;19.498;2023-03-11T05:37:18;5.10;99.90
45137;DHT22;30894;51.740;19.498;2023-03-11T05:39:44;5.00;99.90
45137;DHT22;30894;51.740;19.498;2023-03-11T05:42:10;4.90;99.90
45137;DHT22;30894;51.740;19.498;2023-03-11T05:44:37;4.90;99.90
45137;DHT22;30894;51.740;19.498;2023-03-11T05:47:03;4.90;99.90
45137;DHT22;30894;51.740;19.498;2023-03-11T05:49:30;4.80;99.90
45137;DHT22;30894;51.740;19.498;2023-03-11T05:51:56;4.70;99.90
45137;DHT22;30894;51.740;19.498;2023-03-11T05:54:22;4.60;99.90
45137;DHT22;30894;51.740;19.498;2023-03-11T05:56:49;4.60;99.90
45137;DHT22;30894;51.740;19.498;2023-03-11T05:59:16;4.60;99.90
45137;DHT22;30894;51.740;19.498;2023-03-11T06:01:43;4.60;99.90
45137;DHT22;30894;51.740;19.498;2023-03-11T06:04:10;4.60;99.90
45137;DHT22;30894;51.740;19.498;2023-03-11T06:06:38;4.60;99.90
45137;DHT22;30894;51.740;19.498;2023-03-11T06:09:06;4.50;99.90
45137;DHT22;30894;51.740;19.498;2023-03-11T06:11:38;4.50;99.90
45137;DHT22;30894;51.740;19.498;2023-03-11T06:14:05;4.50;99.90
45137;DHT22;30894;51.740;19.498;2023-03-11T06:16:31;4.50;99.90
45137;DHT22;30894;51.740;19.498;2023-03-11T06:18:57;4.50;99.90
45137;DHT22;30894;51.740;19.498;2023-03-11T06:21:25;4.50;99.90
45137;DHT22;30894;51.740;19.498;2023-03-11T06:23:54;4.40;99.90
45137;DHT22;30894;51.740;19.498;2023-03-11T06:26:21;4.40;99.90
45137;DHT22;30894;51.740;19.498;2023-03-11T06:28:50;4.40;99.90
45137;DHT22;30894;51.740;19.498;2023-03-11T06:31:21;4.30;99.90
45137;DHT22;30894;51.740;19.498;2023-03-11T06:33:53;4.30;99.90
45137;DHT22;30894;51.740;19.498;2023-03-11T06:36:22;4.30;99.90
45137;DHT22;30894;51.740;19.498;2023-03-11T06:38:51;4.20;99.90
45137;DHT22;30894;51.740;19.498;2023-03-11T06:41:18;4.20;99.90
45137;DHT22;30894;51.740;19.498;2023-03-11T06:43:44;4.20;99.90
45137;DHT22;30894;51.740;19.498;2023-03-11T06:46:14;4.20;99.90
45137;DHT22;30894;51.740;19.498;2023-03-11T06:48:46;4.20;99.90
45137;DHT22;30894;51.740;19.498;2023-03-11T06:51:12;4.10;99.90
45137;DHT22;30894;51.740;19.498;2023-03-11T06:53:39;4.10;99.90
45137;DHT22;30894;51.740;19.498;2023-03-11T06:56:10;4.10;99.90
45137;DHT22;30894;51.740;19.498;2023-03-11T06:58:39;4.00;99.90
45137;DHT22;30894;51.740;19.498;2023-03-11T07:01:10;4.00;99.90
45137;DHT22;30894;51.740;19.498;2023-03-11T07:03:38;3.90;99.90
45137;DHT22;30894;51.740;19.498;2023-03-11T07:06:05;3.80;99.90
45137;DHT22;30894;51.740;19.498;2023-03-11T07:08:32;3.70;99.90
45137;DHT22;30894;51.740;19.498;2023-03-11T07:11:03;3.60;99.90
45137;DHT22;30894;51.740;19.498;2023-03-11T07:13:33;3.50;99.90
45137;DHT22;30894;51.740;19.498;2023-03-11T07:16:04;3.40;99.90
45137;DHT22;30894;51.740;19.498;2023-03-11T07:18:33;3.40;99.90
45137;DHT22;30894;51.740;19.498;2023-03-11T07:21:04;3.30;99.90
45137;DHT22;30894;51.740;19.498;2023-03-11T07:23:33;3.20;99.90
45137;DHT22;30894;51.740;19.498;2023-03-11T07:25:59;3.20;99.90
45137;DHT22;30894;51.740;19.498;2023-03-11T07:28:27;3.10;99.90
45137;DHT22;30894;51.740;19.498;2023-03-11T07:30:54;3.10;99.90
45137;DHT22;30894;51.740;19.498;2023-03-11T07:33:22;3.10;99.90
45137;DHT22;30894;51.740;19.498;2023-03-11T07:35:51;3.20;99.90
45137;DHT22;30894;51.740;19.498;2023-03-11T07:38:18;3.20;99.90
45137;DHT22;30894;51.740;19.498;2023-03-11T07:40:44;3.20;99.90
45137;DHT22;30894;51.740;19.498;2023-03-11T07:43:12;3.20;99.90
45137;DHT22;30894;51.740;19.498;2023-03-11T07:45:38;3.20;99.90
45137;DHT22;30894;51.740;19.498;2023-03-11T07:48:05;3.10;99.90
45137;DHT22;30894;51.740;19.498;2023-03-11T07:50:31;3.20;99.90
45137;DHT22;30894;51.740;19.498;2023-03-11T07:52:58;3.10;99.90
45137;DHT22;30894;51.740;19.498;2023-03-11T07:55:25;3.10;99.90
45137;DHT22;30894;51.740;19.498;2023-03-11T07:57:51;3.10;99.90
45137;DHT22;30894;51.740;19.498;2023-03-11T08:00:18;3.10;99.90
45137;DHT22;30894;51.740;19.498;2023-03-11T08:02:45;3.00;99.90
45137;DHT22;30894;51.740;19.498;2023-03-11T08:05:12;3.00;99.90
45137;DHT22;30894;51.740;19.498;2023-03-11T08:07:38;2.90;99.90
45137;DHT22;30894;51.740;19.498;2023-03-11T08:10:05;2.90;99.90
45137;DHT22;30894;51.740;19.498;2023-03-11T08:12:32;2.80;99.90
45137;DHT22;30894;51.740;19.498;2023-03-11T08:14:59;2.80;99.90
45137;DHT22;30894;51.740;19.498;2023-03-11T08:17:26;2.70;99.90
45137;DHT22;30894;51.740;19.498;2023-03-11T08:19:52;2.70;99.90
45137;DHT22;30894;51.740;19.498;2023-03-11T08:22:22;2.70;99.90
45137;DHT22;30894;51.740;19.498;2023-03-11T08:24:52;2.70;99.90
45137;DHT22;30894;51.740;19.498;2023-03-11T08:27:20;2.70;99.90
45137;DHT22;30894;51.740;19.498;2023-03-11T08:29:46;2.70;99.90
45137;DHT22;30894;51.740;19.498;2023-03-11T08:32:13;2.70;99.90
45137;DHT22;30894;51.740;19.498;2023-03-11T08:34:41;2.70;99.90
45137;DHT22;30894;51.740;19.498;2023-03-11T08:37:07;2.70;99.90
45137;DHT22;30894;51.740;19.498;2023-03-11T08:39:33;2.60;99.90
45137;DHT22;30894;51.740;19.498;2023-03-11T08:42:00;2.50;99.90
45137;DHT22;30894;51.740;19.498;2023-03-11T08:44:28;2.40;99.90
45137;DHT22;30894;51.740;19.498;2023-03-11T08:46:55;2.30;99.90
45137;DHT22;30894;51.740;19.498;2023-03-11T08:49:21;2.20;99.90
45137;DHT22;30894;51.740;19.498;2023-03-11T08:51:48;2.20;99.90
45137;DHT22;30894;51.740;19.498;2023-03-11T08:54:14;2.20;99.90
45137;DHT22;30894;51.740;19.498;2023-03-11T08:56:41;2.20;99.90
45137;DHT22;30894;51.740;19.498;2023-03-11T08:59:07;2.10;99.90
45137;DHT22;30894;51.740;19.498;2023-03-11T09:01:34;2.00;99.90
45137;DHT22;30894;51.740;19.498;2023-03-11T09:04:00;2.00;99.90
45137;DHT22;30894;51.740;19.498;2023-03-11T09:06:27;1.90;99.90
45137;DHT22;30894;51.740;19.498;2023-03-11T09:09:03;1.80;99.90
45137;DHT22;30894;51.740;19.498;2023-03-11T09:11:30;1.70;99.90
45137;DHT22;30894;51.740;19.498;2023-03-11T09:13:56;1.70;99.90
45137;DHT22;30894;51.740;19.498;2023-03-11T09:16:23;1.60;99.90
45137;DHT22;30894;51.740;19.498;2023-03-11T09:18:49;1.60;99.90
45137;DHT22;30894;51.740;19.498;2023-03-11T09:21:16;1.50;99.90
45137;DHT22;30894;51.740;19.498;2023-03-11T09:23:42;1.50;99.90
45137;DHT22;30894;51.740;19.498;2023-03-11T09:26:09;1.40;99.90
45137;DHT22;30894;51.740;19.498;2023-03-11T09:28:35;1.40;99.90
45137;DHT22;30894;51.740;19.498;2023-03-11T09:31:02;1.30;99.90
45137;DHT22;30894;51.740;19.498;2023-03-11T09:33:28;1.30;99.90
45137;DHT22;30894;51.740;19.498;2023-03-11T09:35:57;1.30;99.90
45137;DHT22;30894;51.740;19.498;2023-03-11T09:38:23;1.30;99.90
45137;DHT22;30894;51.740;19.498;2023-03-11T09:40:58;1.40;99.90
45137;DHT22;30894;51.740;19.498;2023-03-11T09:52:08;1.50;99.90
45137;DHT22;30894;51.740;19.498;2023-03-11T09:54:44;1.60;99.90
45137;DHT22;30894;51.740;19.498;2023-03-11T09:57:20;1.60;99.90
45137;DHT22;30894;51.740;19.498;2023-03-11T09:59:48;1.60;99.90
45137;DHT22;30894;51.740;19.498;2023-03-11T10:02:18;1.70;99.90
45137;DHT22;30894;51.740;19.498;2023-03-11T10:05:28;1.60;99.90
45137;DHT22;30894;51.740;19.498;2023-03-11T10:07:59;1.70;99.90
45137;DHT22;30894;51.740;19.498;2023-03-11T10:10:33;1.80;99.90
45137;DHT22;30894;51.740;19.498;2023-03-11T10:13:28;1.80;99.90
45137;DHT22;30894;51.740;19.498;2023-03-11T10:25:35;1.60;99.90
45137;DHT22;30894;51.740;19.498;2023-03-11T10:28:14;1.60;99.90
45137;DHT22;30894;51.740;19.498;2023-03-11T10:30:48;1.60;99.90
45137;DHT22;30894;51.740;19.498;2023-03-11T10:33:46;1.50;99.90
45137;DHT22;30894;51.740;19.498;2023-03-11T10:39:30;1.50;99.90
45137;DHT22;30894;51.740;19.498;2023-03-11T10:42:04;1.50;99.90
45137;DHT22;30894;51.740;19.498;2023-03-11T10:44:38;1.60;99.90
45137;DHT22;30894;51.740;19.498;2023-03-11T10:47:12;1.50;99.90
45137;DHT22;30894;51.740;19.498;2023-03-11T10:49:44;1.30;99.90
45137;DHT22;30894;51.740;19.498;2023-03-11T10:52:11;1.30;99.90
45137;DHT22;30894;51.740;19.498;2023-03-11T10:54:46;1.30;99.90
45137;DHT22;30894;51.740;19.498;2023-03-11T10:57:23;1.50;99.90
45137;DHT22;30894;51.740;19.498;2023-03-11T10:59:55;1.70;99.90
45137;DHT22;30894;51.740;19.498;2023-03-11T11:02:40;1.90;99.90
45137;DHT22;30894;51.740;19.498;2023-03-11T11:08:12;1.80;99.90
45137;DHT22;30894;51.740;19.498;2023-03-11T11:10:57;1.70;99.90
45137;DHT22;30894;51.740;19.498;2023-03-11T11:13:33;1.60;99.90
45137;DHT22;30894;51.740;19.498;2023-03-11T11:16:19;1.70;99.90
45137;DHT22;30894;51.740;19.498;2023-03-11T11:19:01;1.70;99.90
45137;DHT22;30894;51.740;19.498;2023-03-11T11:21:32;1.60;99.90
45137;DHT22;30894;51.740;19.498;2023-03-11T11:27:16;1.40;99.90
45137;DHT22;30894;51.740;19.498;2023-03-11T11:29:44;1.30;99.90
45137;DHT22;30894;51.740;19.498;2023-03-11T11:32:18;1.20;99.90
45137;DHT22;30894;51.740;19.498;2023-03-11T11:35:06;1.10;99.90
45137;DHT22;30894;51.740;19.498;2023-03-11T11:37:39;1.10;99.90
45137;DHT22;30894;51.740;19.498;2023-03-11T11:42:56;1.20;99.90
45137;DHT22;30894;51.740;19.498;2023-03-11T11:45:36;1.20;99.90
45137;DHT22;30894;51.740;19.498;2023-03-11T11:50:52;1.20;99.90
45137;DHT22;30894;51.740;19.498;2023-03-11T11:53:27;1.20;99.90
45137;DHT22;30894;51.740;19.498;2023-03-11T11:56:05;1.20;99.90
45137;DHT22;30894;51.740;19.498;2023-03-11T11:58:39;1.00;99.90
45137;DHT22;30894;51.740;19.498;2023-03-11T12:04:32;0.90;99.90
45137;DHT22;30894;51.740;19.498;2023-03-11T12:13:05;1.10;99.90
45137;DHT22;30894;51.740;19.498;2023-03-11T12:27:56;0.80;99.90
45137;DHT22;30894;51.740;19.498;2023-03-11T12:30:41;0.80;99.90
45137;DHT22;30894;51.740;19.498;2023-03-11T12:36:41;0.70;99.90
45137;DHT22;30894;51.740;19.498;2023-03-11T12:39:23;0.70;99.90
45137;DHT22;30894;51.740;19.498;2023-03-11T12:44:37;0.80;99.90
45137;DHT22;30894;51.740;19.498;2023-03-11T12:50:48;0.80;99.90
45137;DHT22;30894;51.740;19.498;2023-03-11T12:53:16;0.70;99.90
45137;DHT22;30894;51.740;19.498;2023-03-11T12:59:07;0.60;99.90
45137;DHT22;30894;51.740;19.498;2023-03-11T13:01:55;0.60;99.90
45137;DHT22;30894;51.740;19.498;2023-03-11T13:04:53;0.60;99.90
45137;DHT22;30894;51.740;19.498;2023-03-11T13:10:37;0.60;99.90
45137;DHT22;30894;51.740;19.498;2023-03-11T13:13:36;0.80;99.90
45137;DHT22;30894;51.740;19.498;2023-03-11T13:18:43;0.70;99.90
45137;DHT22;30894;51.740;19.498;2023-03-11T13:27:21;0.60;99.90
45137;DHT22;30894;51.740;19.498;2023-03-11T13:30:18;0.60;99.90
45137;DHT22;30894;51.740;19.498;2023-03-11T13:39:07;0.90;99.90
45137;DHT22;30894;51.740;19.498;2023-03-11T13:41:44;0.90;99.90
45137;DHT22;30894;51.740;19.498;2023-03-11T13:46:52;0.80;99.90
45137;DHT22;30894;51.740;19.498;2023-03-11T13:49:50;0.90;99.90
45137;DHT22;30894;51.740;19.498;2023-03-11T13:52:41;1.00;99.90
45137;DHT22;30894;51.740;19.498;2023-03-11T13:55:20;1.10;99.90
45137;DHT22;30894;51.740;19.498;2023-03-11T13:57:57;1.20;99.90
45137;DHT22;30894;51.740;19.498;2023-03-11T14:00:26;1.10;99.90
45137;DHT22;30894;51.740;19.498;2023-03-11T14:02:55;1.00;99.90
45137;DHT22;30894;51.740;19.498;2023-03-11T14:05:31;0.90;99.90
45137;DHT22;30894;51.740;19.498;2023-03-11T14:13:41;0.70;99.90
45137;DHT22;30894;51.740;19.498;2023-03-11T14:21:41;0.60;99.90
45137;DHT22;30894;51.740;19.498;2023-03-11T14:24:19;0.70;99.90
45137;DHT22;30894;51.740;19.498;2023-03-11T14:26:49;0.70;99.90
45137;DHT22;30894;51.740;19.498;2023-03-11T14:29:28;0.80;99.90
45137;DHT22;30894;51.740;19.498;2023-03-11T14:32:00;0.90;99.90
45137;DHT22;30894;51.740;19.498;2023-03-11T14:34:48;1.00;99.90
45137;DHT22;30894;51.740;19.498;2023-03-11T14:37:44;1.10;99.90
45137;DHT22;30894;51.740;19.498;2023-03-11T14:40:31;1.10;99.90
45137;DHT22;30894;51.740;19.498;2023-03-11T14:43:05;1.10;99.90
45137;DHT22;30894;51.740;19.498;2023-03-11T14:45:34;1.20;99.90
45137;DHT22;30894;51.740;19.498;2023-03-11T14:48:24;1.20;99.90
45137;DHT22;30894;51.740;19.498;2023-03-11T14:51:01;1.30;99.90
45137;DHT22;30894;51.740;19.498;2023-03-11T14:53:41;1.30;99.90
45137;DHT22;30894;51.740;19.498;2023-03-11T14:56:24;1.30;99.90
45137;DHT22;30894;51.740;19.498;2023-03-11T14:59:07;1.30;99.90
45137;DHT22;30894;51.740;19.498;2023-03-11T15:02:21;1.30;99.90
45137;DHT22;30894;51.740;19.498;2023-03-11T15:04:48;1.30;99.90
45137;DHT22;30894;51.740;19.498;2023-03-11T15:07:18;1.20;99.90
45137;DHT22;30894;51.740;19.498;2023-03-11T15:09:46;1.20;99.90
45137;DHT22;30894;51.740;19.498;2023-03-11T15:14:58;1.10;99.90
45137;DHT22;30894;51.740;19.498;2023-03-11T15:17:26;1.00;99.90
45137;DHT22;30894;51.740;19.498;2023-03-11T15:19:54;1.10;99.90
45137;DHT22;30894;51.740;19.498;2023-03-11T15:22:37;1.10;99.90
45137;DHT22;30894;51.740;19.498;2023-03-11T15:25:16;1.20;99.90
45137;DHT22;30894;51.740;19.498;2023-03-11T15:27:43;1.10;99.90
45137;DHT22;30894;51.740;19.498;2023-03-11T15:30:21;1.10;99.90
45137;DHT22;30894;51.740;19.498;2023-03-11T15:32:52;1.00;99.90
45137;DHT22;30894;51.740;19.498;2023-03-11T15:35:24;1.00;99.90
45137;DHT22;30894;51.740;19.498;2023-03-11T15:38:19;1.00;99.90
45137;DHT22;30894;51.740;19.498;2023-03-11T15:40:58;1.10;99.90
45137;DHT22;30894;51.740;19.498;2023-03-11T15:43:33;1.20;99.90
45137;DHT22;30894;51.740;19.498;2023-03-11T15:46:08;1.10;99.90
45137;DHT22;30894;51.740;19.498;2023-03-11T15:48:36;1.10;99.90
45137;DHT22;30894;51.740;19.498;2023-03-11T15:51:02;1.00;99.90
45137;DHT22;30894;51.740;19.498;2023-03-11T15:53:29;0.80;99.90
45137;DHT22;30894;51.740;19.498;2023-03-11T15:55:57;0.80;99.90
45137;DHT22;30894;51.740;19.498;2023-03-11T15:58:27;0.80;99.90
45137;DHT22;30894;51.740;19.498;2023-03-11T16:00:56;0.80;99.90
45137;DHT22;30894;51.740;19.498;2023-03-11T16:03:23;0.70;99.90
45137;DHT22;30894;51.740;19.498;2023-03-11T16:05:53;0.70;99.90
45137;DHT22;30894;51.740;19.498;2023-03-11T16:08:26;0.70;99.90
45137;DHT22;30894;51.740;19.498;2023-03-11T16:11:01;0.70;99.90
45137;DHT22;30894;51.740;19.498;2023-03-11T16:13:27;0.70;99.90
45137;DHT22;30894;51.740;19.498;2023-03-11T16:15:53;0.80;99.90
45137;DHT22;30894;51.740;19.498;2023-03-11T16:18:20;0.70;99.90
45137;DHT22;30894;51.740;19.498;2023-03-11T16:20:49;0.70;99.90
45137;DHT22;30894;51.740;19.498;2023-03-11T16:23:21;0.70;99.90
45137;DHT22;30894;51.740;19.498;2023-03-11T16:25:51;0.70;99.90
45137;DHT22;30894;51.740;19.498;2023-03-11T16:28:18;0.80;99.90
45137;DHT22;30894;51.740;19.498;2023-03-11T16:30:45;0.70;99.90
45137;DHT22;30894;51.740;19.498;2023-03-11T16:33:11;0.70;99.90
45137;DHT22;30894;51.740;19.498;2023-03-11T16:35:37;0.70;99.90
45137;DHT22;30894;51.740;19.498;2023-03-11T16:38:04;0.60;99.90
45137;DHT22;30894;51.740;19.498;2023-03-11T16:40:32;0.60;99.90
45137;DHT22;30894;51.740;19.498;2023-03-11T16:43:05;0.50;99.90
45137;DHT22;30894;51.740;19.498;2023-03-11T16:45:33;0.50;99.90
45137;DHT22;30894;51.740;19.498;2023-03-11T16:47:59;0.50;99.90
45137;DHT22;30894;51.740;19.498;2023-03-11T16:50:26;0.40;99.90
45137;DHT22;30894;51.740;19.498;2023-03-11T16:52:54;0.50;99.90
45137;DHT22;30894;51.740;19.498;2023-03-11T16:55:22;0.40;99.90
45137;DHT22;30894;51.740;19.498;2023-03-11T16:57:49;0.50;99.90
45137;DHT22;30894;51.740;19.498;2023-03-11T17:00:16;0.50;99.90
45137;DHT22;30894;51.740;19.498;2023-03-11T17:02:43;0.40;99.90
45137;DHT22;30894;51.740;19.498;2023-03-11T17:05:10;0.40;99.90
45137;DHT22;30894;51.740;19.498;2023-03-11T17:07:41;0.40;99.90
45137;DHT22;30894;51.740;19.498;2023-03-11T17:10:09;0.40;99.90
45137;DHT22;30894;51.740;19.498;2023-03-11T17:12:37;0.30;99.90
45137;DHT22;30894;51.740;19.498;2023-03-11T17:15:05;0.20;99.90
45137;DHT22;30894;51.740;19.498;2023-03-11T17:17:31;0.20;99.90
45137;DHT22;30894;51.740;19.498;2023-03-11T17:19:58;0.20;99.90
45137;DHT22;30894;51.740;19.498;2023-03-11T17:22:24;0.20;99.90
45137;DHT22;30894;51.740;19.498;2023-03-11T17:24:50;0.20;99.90
45137;DHT22;30894;51.740;19.498;2023-03-11T17:27:16;0.10;99.90
45137;DHT22;30894;51.740;19.498;2023-03-11T17:29:43;0.10;99.90
45137;DHT22;30894;51.740;19.498;2023-03-11T17:32:12;0.10;99.90
45137;DHT22;30894;51.740;19.498;2023-03-11T17:34:42;0.10;99.90
45137;DHT22;30894;51.740;19.498;2023-03-11T17:37:08;0.10;99.90
45137;DHT22;30894;51.740;19.498;2023-03-11T17:39:34;0.10;99.90
45137;DHT22;30894;51.740;19.498;2023-03-11T17:42:01;0.10;99.90
45137;DHT22;30894;51.740;19.498;2023-03-11T17:44:27;0.10;99.90
45137;DHT22;30894;51.740;19.498;2023-03-11T17:46:53;0.10;99.90